Time;durP1;ratioP1;P1;durP2;ratioP2;P2;SDS_P1;SDS_P2;PMS_P1;PMS_P2;Temp;Humidity;BMP_temperature;BMP_pressure;BME280_temperature;BME280_humidity;BME280_pressure;Samples;Min_cycle;Max_cycle;Signal;HPM_P1;HPM_P2
2021/05/08 00:01:06;;;;;;;12.17;4.77;;;8.40;67.00;;;;;;4936938;29;20035;-89
2021/05/08 00:03:32;;;;;;;12.43;4.73;;;8.30;67.30;;;;;;4944909;28;20039;-90
2021/05/08 00:05:59;;;;;;;10.80;4.70;;;8.30;67.10;;;;;;4960100;28;20050;-90
2021/05/08 00:08:24;;;;;;;13.23;4.83;;;8.20;67.10;;;;;;4960650;28;20031;-90
2021/05/08 00:10:50;;;;;;;15.50;6.03;;;8.20;67.20;;;;;;4960649;29;20043;-90
2021/05/08 00:13:15;;;;;;;13.87;5.23;;;8.20;67.30;;;;;;4941125;28;20043;-90
2021/05/08 00:15:41;;;;;;;14.83;5.63;;;8.20;67.30;;;;;;4933737;29;20082;-90
2021/05/08 00:18:07;;;;;;;14.07;5.00;;;8.20;67.40;;;;;;4917299;29;20397;-91
2021/05/08 00:20:32;;;;;;;16.45;5.43;;;8.10;67.40;;;;;;4932240;29;20039;-91
2021/05/08 00:22:59;;;;;;;14.90;5.13;;;8.10;67.30;;;;;;4951787;29;20045;-91
2021/05/08 00:25:24;;;;;;;15.43;5.43;;;8.20;67.40;;;;;;4952058;29;20037;-90
2021/05/08 00:27:50;;;;;;;13.43;4.90;;;8.20;67.50;;;;;;4920969;29;20135;-91
2021/05/08 00:30:16;;;;;;;13.63;5.30;;;8.10;67.40;;;;;;4917481;29;20028;-90
2021/05/08 00:32:42;;;;;;;14.83;5.50;;;8.10;67.40;;;;;;4916069;29;20042;-90
2021/05/08 00:35:08;;;;;;;13.27;6.00;;;8.10;67.60;;;;;;4916533;29;20057;-91
2021/05/08 00:37:33;;;;;;;14.70;6.10;;;8.00;67.60;;;;;;4916002;29;20035;-91
2021/05/08 00:39:59;;;;;;;13.10;5.63;;;8.00;67.70;;;;;;4916663;29;20505;-90
2021/05/08 00:42:25;;;;;;;13.67;5.37;;;8.00;67.70;;;;;;4932753;29;20032;-90
2021/05/08 00:44:50;;;;;;;12.90;5.47;;;8.00;67.70;;;;;;4935736;29;20537;-90
2021/05/08 00:47:16;;;;;;;13.03;5.93;;;8.00;67.80;;;;;;4928096;29;20032;-91
2021/05/08 00:49:45;;;;;;;15.03;5.73;;;8.00;67.80;;;;;;4917649;29;20050;-90
2021/05/08 00:52:13;;;;;;;14.68;5.55;;;8.00;67.90;;;;;;4917367;29;20465;-91
2021/05/08 00:54:39;;;;;;;15.37;6.17;;;8.00;68.00;;;;;;4917318;29;20109;-90
2021/05/08 00:57:05;;;;;;;15.33;6.57;;;7.90;68.10;;;;;;4917492;29;20078;-91
2021/05/08 00:59:30;;;;;;;15.50;6.50;;;7.90;68.00;;;;;;4917209;29;20118;-90
2021/05/08 01:01:56;;;;;;;16.43;6.63;;;7.90;68.00;;;;;;4917074;29;20322;-91
2021/05/08 01:04:22;;;;;;;18.17;6.30;;;7.90;68.10;;;;;;4917231;29;20036;-91
2021/05/08 01:06:48;;;;;;;16.37;6.33;;;7.90;68.20;;;;;;4917195;29;20040;-91
2021/05/08 01:09:13;;;;;;;15.07;6.57;;;7.90;68.20;;;;;;4917548;29;20557;-90
2021/05/08 01:11:39;;;;;;;14.80;5.93;;;7.90;68.20;;;;;;4927469;29;20027;-90
2021/05/08 01:14:06;;;;;;;15.93;6.13;;;7.90;68.20;;;;;;4953486;29;20034;-91
2021/05/08 01:16:32;;;;;;;17.63;6.20;;;7.90;68.10;;;;;;4935615;29;20493;-92
2021/05/08 01:18:59;;;;;;;14.83;6.07;;;7.90;68.20;;;;;;4926180;29;20024;-90
2021/05/08 01:21:25;;;;;;;16.67;6.63;;;7.90;68.30;;;;;;4916829;29;20027;-90
2021/05/08 01:23:51;;;;;;;15.43;6.67;;;7.90;68.30;;;;;;4916688;29;20074;-90
2021/05/08 01:26:17;;;;;;;15.43;6.17;;;7.90;69.10;;;;;;4917067;29;20024;-91
2021/05/08 01:28:44;;;;;;;12.37;5.77;;;7.90;68.60;;;;;;4923997;29;20054;-91
2021/05/08 01:31:10;;;;;;;14.13;6.33;;;7.80;68.60;;;;;;4935663;29;20382;-90
2021/05/08 01:33:36;;;;;;;13.43;5.90;;;7.80;68.60;;;;;;4935491;29;20028;-90
2021/05/08 01:36:03;;;;;;;16.70;6.30;;;7.80;68.70;;;;;;4935689;29;20028;-92
2021/05/08 01:38:30;;;;;;;15.60;5.90;;;7.80;68.80;;;;;;4935494;29;20070;-91
2021/05/08 01:41:01;;;;;;;14.77;5.73;;;7.80;68.90;;;;;;4935932;29;20027;-90
2021/05/08 01:43:27;;;;;;;14.10;6.20;;;7.70;68.90;;;;;;4935233;29;20031;-91
2021/05/08 01:45:54;;;;;;;13.30;5.50;;;7.70;69.00;;;;;;4935453;29;20039;-92
2021/05/08 01:48:19;;;;;;;14.17;6.10;;;7.70;69.00;;;;;;4935687;29;20041;-91
2021/05/08 01:50:45;;;;;;;13.77;6.10;;;7.70;69.10;;;;;;4938889;29;20118;-90
2021/05/08 01:53:11;;;;;;;14.60;5.60;;;7.70;69.10;;;;;;4939154;29;20046;-90
2021/05/08 01:55:36;;;;;;;13.70;5.37;;;7.70;69.20;;;;;;4939078;29;20023;-90
2021/05/08 01:58:02;;;;;;;14.60;5.97;;;7.60;69.20;;;;;;4939025;29;20027;-91
2021/05/08 02:00:30;;;;;;;12.03;5.33;;;7.70;69.30;;;;;;4938848;29;20258;-91
2021/05/08 02:02:57;;;;;;;12.73;5.20;;;7.60;69.30;;;;;;4938934;29;20023;-90
2021/05/08 02:05:26;;;;;;;13.53;5.20;;;7.60;69.40;;;;;;4938957;29;20031;-90
2021/05/08 02:07:51;;;;;;;;;;;7.60;69.60;;;;;;4939485;29;20031;-89
2021/05/08 02:10:17;;;;;;;12.83;5.47;;;7.50;69.60;;;;;;4938672;29;20304;-91
2021/05/08 02:12:43;;;;;;;12.83;5.63;;;7.50;69.70;;;;;;4938570;29;20023;-91
2021/05/08 02:15:12;;;;;;;11.43;5.07;;;7.50;69.80;;;;;;4938419;29;20034;-91
2021/05/08 02:17:38;;;;;;;12.25;5.30;;;7.50;69.70;;;;;;4938202;29;20027;-91
2021/05/08 02:20:15;;;;;;;11.70;5.23;;;7.50;69.80;;;;;;4938050;29;20023;-90
2021/05/08 02:22:42;;;;;;;11.60;5.03;;;7.50;70.30;;;;;;4937851;29;20032;-90
2021/05/08 02:25:09;;;;;;;11.20;4.73;;;7.40;70.10;;;;;;4937619;29;20035;-92
2021/05/08 02:27:35;;;;;;;11.50;5.40;;;7.40;70.30;;;;;;4954638;29;20052;-90
2021/05/08 02:30:03;;;;;;;12.93;5.20;;;7.40;70.20;;;;;;4938912;29;20047;-90
2021/05/08 02:32:29;;;;;;;12.53;5.27;;;7.30;70.40;;;;;;4937229;29;20413;-90
2021/05/08 02:34:54;;;;;;;12.83;5.20;;;7.30;70.50;;;;;;4936748;29;20118;-91
2021/05/08 02:37:20;;;;;;;15.03;5.70;;;7.30;70.60;;;;;;4937615;29;20555;-90
2021/05/08 02:39:45;;;;;;;12.00;5.27;;;7.30;70.40;;;;;;4937247;29;20023;-90
2021/05/08 02:42:11;;;;;;;13.00;5.37;;;7.30;70.60;;;;;;4933177;29;20405;-90
2021/05/08 02:44:36;;;;;;;13.03;6.00;;;7.20;70.50;;;;;;4955654;29;20031;-90
2021/05/08 02:47:02;;;;;;;12.77;5.60;;;7.20;71.00;;;;;;4960503;29;20023;-90
2021/05/08 02:49:28;;;;;;;13.10;5.67;;;7.20;70.70;;;;;;4946350;28;20059;-90
2021/05/08 02:51:53;;;;;;;13.90;5.13;;;7.10;70.90;;;;;;4950170;29;20030;-90
2021/05/08 02:54:19;;;;;;;10.73;5.03;;;7.10;70.70;;;;;;4950960;29;20038;-90
2021/05/08 02:56:44;;;;;;;12.47;5.40;;;7.00;70.90;;;;;;4937801;29;20037;-91
2021/05/08 02:59:10;;;;;;;11.03;5.10;;;7.00;70.90;;;;;;4937340;29;20485;-91
2021/05/08 03:01:35;;;;;;;11.80;5.40;;;7.00;71.00;;;;;;4930136;29;20035;-91
2021/05/08 03:04:01;;;;;;;12.07;5.50;;;6.90;71.50;;;;;;4918138;29;20152;-90
2021/05/08 03:06:27;;;;;;;13.43;5.77;;;6.90;71.10;;;;;;4918031;29;20043;-91
2021/05/08 03:08:52;;;;;;;12.37;5.40;;;6.90;71.30;;;;;;4917878;29;20024;-91
2021/05/08 03:11:18;;;;;;;11.50;5.13;;;6.90;71.40;;;;;;4918764;29;20024;-91
2021/05/08 03:13:43;;;;;;;13.37;5.30;;;6.90;71.30;;;;;;4919246;29;20036;-91
2021/05/08 03:16:09;;;;;;;11.67;5.37;;;6.80;71.30;;;;;;4917991;29;20050;-90
2021/05/08 03:18:34;;;;;;;12.93;5.33;;;6.80;71.30;;;;;;4918835;29;20118;-91
2021/05/08 03:21:00;;;;;;;13.90;5.53;;;6.80;71.30;;;;;;4931343;29;20074;-90
2021/05/08 03:23:26;;;;;;;11.77;5.17;;;6.80;71.30;;;;;;4936056;29;20031;-91
2021/05/08 03:25:51;;;;;;;12.57;5.50;;;6.80;71.30;;;;;;4937093;29;20524;-91
2021/05/08 03:28:17;;;;;;;13.47;6.00;;;6.80;71.30;;;;;;4936945;29;20078;-90
2021/05/08 03:30:42;;;;;;;13.97;6.07;;;6.80;71.30;;;;;;4937176;29;20028;-91
2021/05/08 03:33:08;;;;;;;16.17;5.83;;;6.80;71.40;;;;;;4933801;29;20030;-91
2021/05/08 03:35:34;;;;;;;14.30;6.03;;;6.80;71.60;;;;;;4937225;29;20474;-92
2021/05/08 03:38:00;;;;;;;14.87;6.30;;;6.70;71.60;;;;;;4936627;29;20134;-89
2021/05/08 03:40:25;;;;;;;13.47;6.13;;;6.70;71.80;;;;;;4936699;29;20118;-91
2021/05/08 03:42:51;;;;;;;12.73;5.83;;;6.70;72.20;;;;;;4936373;29;20082;-91
2021/05/08 03:45:17;;;;;;;14.07;5.67;;;6.70;71.90;;;;;;4937752;29;20027;-92
2021/05/08 03:47:42;;;;;;;13.10;5.67;;;6.60;71.90;;;;;;4936804;29;20031;-90
2021/05/08 03:50:08;;;;;;;14.20;5.93;;;6.70;71.80;;;;;;4937398;29;20023;-90
2021/05/08 03:52:34;;;;;;;12.63;5.70;;;6.70;71.80;;;;;;4935260;29;20051;-91
2021/05/08 03:55:01;;;;;;;13.13;6.23;;;6.70;71.90;;;;;;4936355;29;20031;-91
2021/05/08 03:57:26;;;;;;;14.83;6.00;;;6.70;71.80;;;;;;4936825;29;20031;-90
2021/05/08 03:59:52;;;;;;;12.17;5.87;;;6.80;71.60;;;;;;4936496;29;20122;-90
2021/05/08 04:02:18;;;;;;;12.60;5.87;;;6.80;71.50;;;;;;4936753;29;20027;-91
2021/05/08 04:04:43;;;;;;;15.27;6.57;;;6.70;72.30;;;;;;4920674;29;20070;-91
2021/05/08 04:07:09;;;;;;;12.90;5.97;;;6.70;71.50;;;;;;4916682;29;20067;-91
2021/05/08 04:09:34;;;;;;;15.00;6.30;;;6.80;71.50;;;;;;4917293;29;20059;-89
2021/05/08 04:12:00;;;;;;;13.07;6.17;;;6.80;71.50;;;;;;4917396;29;20028;-91
2021/05/08 04:14:25;;;;;;;15.07;6.53;;;6.80;71.50;;;;;;4926605;29;20031;-90
2021/05/08 04:16:51;;;;;;;12.73;6.27;;;6.70;71.40;;;;;;4936223;29;20118;-90
2021/05/08 04:19:16;;;;;;;13.60;6.43;;;6.70;71.40;;;;;;4937454;29;20031;-90
2021/05/08 04:21:42;;;;;;;16.37;6.90;;;6.70;71.60;;;;;;4937076;29;20042;-90
2021/05/08 04:24:08;;;;;;;13.27;6.70;;;6.70;71.70;;;;;;4938655;29;20297;-91
2021/05/08 04:26:33;;;;;;;14.17;6.90;;;6.70;71.50;;;;;;4939464;29;20031;-91
2021/05/08 04:28:59;;;;;;;13.03;5.90;;;6.70;71.70;;;;;;4939339;29;20509;-90
2021/05/08 04:31:24;;;;;;;13.90;6.20;;;6.70;71.60;;;;;;4947394;29;20031;-90
2021/05/08 04:33:50;;;;;;;16.00;6.37;;;6.70;71.70;;;;;;4928862;29;20034;-90
2021/05/08 04:36:16;;;;;;;16.00;6.67;;;6.60;71.70;;;;;;4917763;29;20019;-91
2021/05/08 04:38:41;;;;;;;12.53;5.90;;;6.60;71.80;;;;;;4916841;29;20500;-90
2021/05/08 04:41:08;;;;;;;15.90;6.60;;;6.60;72.00;;;;;;4917381;29;20044;-91
2021/05/08 04:43:33;;;;;;;17.87;7.07;;;6.60;72.00;;;;;;4916390;29;20043;-91
2021/05/08 04:45:59;;;;;;;13.73;6.60;;;6.60;72.00;;;;;;4916190;29;20032;-90
2021/05/08 04:48:26;;;;;;;16.10;7.57;;;6.60;72.20;;;;;;4917115;29;20093;-90
2021/05/08 04:50:53;;;;;;;16.40;7.50;;;6.60;72.10;;;;;;4917043;29;20509;-91
2021/05/08 04:53:19;;;;;;;14.40;6.90;;;6.60;72.20;;;;;;4934279;29;20106;-90
2021/05/08 04:55:46;;;;;;;17.17;7.20;;;6.60;72.20;;;;;;4936050;29;20039;-91
2021/05/08 04:58:13;;;;;;;15.70;7.27;;;6.70;72.20;;;;;;4936489;29;20042;-90
2021/05/08 05:00:38;;;;;;;15.53;7.13;;;6.60;72.20;;;;;;4936258;29;20058;-91
2021/05/08 05:03:04;;;;;;;15.20;7.40;;;6.60;72.30;;;;;;4934918;29;20106;-91
2021/05/08 05:05:30;;;;;;;15.77;7.50;;;6.60;72.20;;;;;;4953373;29;20031;-91
2021/05/08 05:07:55;;;;;;;16.27;8.03;;;6.70;72.40;;;;;;4935927;29;20031;-91
2021/05/08 05:10:21;;;;;;;15.93;8.00;;;6.60;72.40;;;;;;4936266;29;20371;-91
2021/05/08 05:12:48;;;;;;;17.40;7.97;;;6.60;72.40;;;;;;4952644;29;20481;-90
2021/05/08 05:15:19;;;;;;;16.60;7.93;;;6.60;72.40;;;;;;4919039;29;20050;-91
2021/05/08 05:17:45;;;;;;;15.57;8.10;;;6.60;72.70;;;;;;4934067;29;20043;-90
2021/05/08 05:20:12;;;;;;;15.47;8.00;;;6.60;72.90;;;;;;4916420;29;20027;-91
2021/05/08 05:22:38;;;;;;;16.83;8.50;;;6.60;72.90;;;;;;4916994;29;20035;-90
2021/05/08 05:25:05;;;;;;;16.97;7.97;;;6.60;72.90;;;;;;4919888;29;20032;-91
2021/05/08 05:27:31;;;;;;;17.87;8.67;;;6.70;72.80;;;;;;4926021;29;20051;-90
2021/05/08 05:29:57;;;;;;;16.17;8.13;;;6.80;72.70;;;;;;4943456;29;20020;-90
2021/05/08 05:32:23;;;;;;;17.43;9.00;;;6.90;72.70;;;;;;4941567;29;20056;-90
2021/05/08 05:34:48;;;;;;;15.13;8.27;;;6.90;73.00;;;;;;4960978;29;20031;-90
2021/05/08 05:37:14;;;;;;;17.23;8.67;;;6.90;73.30;;;;;;4940503;29;20035;-91
2021/05/08 05:39:39;;;;;;;15.83;9.43;;;7.00;72.60;;;;;;4939630;29;20082;-91
2021/05/08 05:42:05;;;;;;;15.57;9.17;;;7.00;72.60;;;;;;4939014;29;20167;-90
2021/05/08 05:44:31;;;;;;;15.10;8.60;;;7.00;72.50;;;;;;4926301;29;20122;-91
2021/05/08 05:46:57;;;;;;;15.80;8.83;;;7.10;72.40;;;;;;4919315;29;20035;-92
2021/05/08 05:49:22;;;;;;;17.17;8.97;;;7.10;72.60;;;;;;4919628;29;20024;-91
2021/05/08 05:51:48;;;;;;;18.03;9.67;;;7.20;72.50;;;;;;4920117;29;20028;-91
2021/05/08 05:54:13;;;;;;;16.27;9.27;;;7.20;72.50;;;;;;4919640;29;20171;-91
2021/05/08 05:56:39;;;;;;;18.00;9.20;;;7.20;73.20;;;;;;4936559;29;20438;-90
2021/05/08 05:59:04;;;;;;;17.80;9.53;;;7.30;72.50;;;;;;4919780;29;20027;-91
2021/05/08 06:01:30;;;;;;;17.97;9.80;;;7.40;72.40;;;;;;4919709;29;20032;-90
2021/05/08 06:03:56;;;;;;;16.77;8.97;;;7.50;72.40;;;;;;4919145;29;20030;-91
2021/05/08 06:06:21;;;;;;;17.53;9.77;;;7.50;72.20;;;;;;4918909;29;20058;-91
2021/05/08 06:08:47;;;;;;;17.93;9.60;;;7.60;72.20;;;;;;4919615;29;20458;-93
2021/05/08 06:11:12;;;;;;;17.43;10.17;;;7.60;72.30;;;;;;4919336;29;20035;-91
2021/05/08 06:13:38;;;;;;;16.90;9.67;;;7.70;72.20;;;;;;4918837;29;20448;-90
2021/05/08 06:16:06;;;;;;;17.43;10.00;;;7.70;72.10;;;;;;4930577;29;20027;-90
2021/05/08 06:18:35;;;;;;;19.63;10.20;;;7.90;72.10;;;;;;4937681;29;20048;-90
2021/05/08 06:21:01;;;;;;;;;;;7.90;72.50;;;;;;4938367;29;20067;-90
2021/05/08 06:23:27;;;;;;;17.60;10.00;;;7.90;72.00;;;;;;4937784;29;19937;-91
2021/05/08 06:25:53;;;;;;;18.57;10.00;;;8.00;71.80;;;;;;4937148;29;20035;-90
2021/05/08 06:28:18;;;;;;;18.37;10.33;;;8.10;72.00;;;;;;4937946;29;20040;-91
2021/05/08 06:30:44;;;;;;;17.40;10.43;;;8.20;71.70;;;;;;4938754;29;20489;-92
2021/05/08 06:33:10;;;;;;;20.10;10.53;;;8.30;71.70;;;;;;4955123;29;20031;-92
2021/05/08 06:35:36;;;;;;;21.33;12.00;;;8.40;71.50;;;;;;4930600;29;20082;-91
2021/05/08 06:38:02;;;;;;;20.50;11.43;;;8.60;71.30;;;;;;4919742;29;20309;-91
2021/05/08 06:40:28;;;;;;;19.87;11.90;;;8.70;70.90;;;;;;4919491;29;20174;-91
2021/05/08 06:42:54;;;;;;;23.30;13.93;;;8.90;70.80;;;;;;4919785;29;20043;-91
2021/05/08 06:45:19;;;;;;;24.57;12.50;;;9.00;70.00;;;;;;4921709;29;20111;-92
2021/05/08 06:47:47;;;;;;;22.27;12.00;;;9.20;69.40;;;;;;4920429;29;20103;-92
2021/05/08 06:50:12;;;;;;;23.00;13.40;;;9.30;69.20;;;;;;4919766;29;20040;-91
2021/05/08 06:52:38;;;;;;;21.03;11.67;;;9.40;68.80;;;;;;4920068;29;20067;-91
2021/05/08 06:55:04;;;;;;;23.77;11.90;;;9.50;68.50;;;;;;4918969;29;20024;-91
2021/05/08 06:57:30;;;;;;;22.67;11.60;;;9.70;68.00;;;;;;4936252;29;20039;-91
2021/05/08 06:59:56;;;;;;;20.63;11.50;;;9.80;67.50;;;;;;4937462;29;20118;-90
2021/05/08 07:02:21;;;;;;;22.07;11.67;;;9.90;67.20;;;;;;4938786;29;20392;-91
2021/05/08 07:04:47;;;;;;;25.23;12.53;;;10.00;67.40;;;;;;4937659;29;20102;-90
2021/05/08 07:07:13;;;;;;;26.37;13.17;;;10.10;66.50;;;;;;4925960;29;20071;-90
2021/05/08 07:09:39;;;;;;;22.83;12.73;;;10.20;66.40;;;;;;4923084;29;20035;-89
2021/05/08 07:12:05;;;;;;;21.77;11.80;;;10.20;66.00;;;;;;4937369;29;20485;-91
2021/05/08 07:14:30;;;;;;;23.83;12.07;;;10.30;65.60;;;;;;4937687;29;20027;-90
2021/05/08 07:16:56;;;;;;;20.25;10.85;;;10.40;65.40;;;;;;4935387;29;20035;-89
2021/05/08 07:19:21;;;;;;;20.08;10.15;;;10.50;65.50;;;;;;4919035;29;20059;-91
2021/05/08 07:21:47;;;;;;;20.27;10.68;;;10.60;64.60;;;;;;4937502;29;20531;-91
2021/05/08 07:24:13;;;;;;;20.23;10.10;;;10.70;64.70;;;;;;4936162;29;20392;-90
2021/05/08 07:26:38;;;;;;;18.90;8.95;;;10.80;64.50;;;;;;4936734;29;20024;-91
2021/05/08 07:29:04;;;;;;;18.77;10.10;;;10.90;63.90;;;;;;4935068;29;20410;-91
2021/05/08 07:31:29;;;;;;;18.88;9.88;;;10.90;63.70;;;;;;4936835;29;20540;-90
2021/05/08 07:33:55;;;;;;;19.95;10.10;;;10.90;63.40;;;;;;4936185;29;20059;-90
2021/05/08 07:36:21;;;;;;;19.02;9.75;;;11.00;63.10;;;;;;4936341;29;20019;-91
2021/05/08 07:38:46;;;;;;;18.50;9.57;;;11.00;62.80;;;;;;4926420;29;20509;-90
2021/05/08 07:41:13;;;;;;;16.90;8.77;;;11.10;62.10;;;;;;4917739;29;20027;-89
2021/05/08 07:43:39;;;;;;;16.90;8.27;;;11.10;62.20;;;;;;4917726;29;20086;-90
2021/05/08 07:46:04;;;;;;;19.17;8.88;;;11.20;62.60;;;;;;4917113;29;20437;-90
2021/05/08 07:48:30;;;;;;;20.88;9.50;;;11.30;62.30;;;;;;4918135;29;20038;-90
2021/05/08 07:50:56;;;;;;;19.63;9.45;;;11.30;62.00;;;;;;4925266;29;20031;-91
2021/05/08 07:53:21;;;;;;;18.48;9.10;;;11.40;59.90;;;;;;4920569;29;20125;-90
2021/05/08 07:55:47;;;;;;;18.75;8.95;;;11.40;61.40;;;;;;4918876;29;20098;-90
2021/05/08 07:58:13;;;;;;;17.92;8.15;;;11.40;60.70;;;;;;4919228;29;20027;-89
2021/05/08 08:00:38;;;;;;;17.40;7.88;;;11.50;61.10;;;;;;4937872;29;20038;-91
2021/05/08 08:03:04;;;;;;;18.95;7.95;;;11.50;60.60;;;;;;4936265;29;20035;-90
2021/05/08 08:05:30;;;;;;;17.25;7.13;;;11.60;59.90;;;;;;4936035;29;20400;-89
2021/05/08 08:07:56;;;;;;;16.73;7.00;;;11.60;59.60;;;;;;4938797;29;20023;-89
2021/05/08 08:10:22;;;;;;;16.55;6.45;;;11.60;58.50;;;;;;4941436;28;20099;-89
2021/05/08 08:12:48;;;;;;;14.52;5.03;;;11.70;59.70;;;;;;4940862;29;20144;-88
2021/05/08 08:15:14;;;;;;;17.10;6.50;;;11.80;58.30;;;;;;4940049;29;20112;-90
2021/05/08 08:17:40;;;;;;;16.75;6.10;;;11.80;57.70;;;;;;4933511;29;20130;-89
2021/05/08 08:20:10;;;;;;;14.60;5.75;;;11.80;57.40;;;;;;4927591;29;20482;-90
2021/05/08 08:22:37;;;;;;;16.10;6.78;;;11.80;57.10;;;;;;4935930;29;20027;-90
2021/05/08 08:25:04;;;;;;;16.20;6.35;;;11.90;57.80;;;;;;4936006;29;20038;-90
2021/05/08 08:27:30;;;;;;;16.65;6.32;;;12.00;56.80;;;;;;4935962;29;20051;-90
2021/05/08 08:29:55;;;;;;;14.77;5.95;;;12.10;57.30;;;;;;4929415;29;20090;-89
2021/05/08 08:32:21;;;;;;;16.30;6.00;;;12.10;56.70;;;;;;4917177;29;20035;-89
2021/05/08 08:34:47;;;;;;;14.07;5.60;;;12.10;56.40;;;;;;4918139;29;20496;-90
2021/05/08 08:37:12;;;;;;;18.83;7.72;;;12.10;56.60;;;;;;4917880;29;20039;-89
2021/05/08 08:39:38;;;;;;;16.92;7.00;;;12.20;56.00;;;;;;4918227;29;20041;-89
2021/05/08 08:42:07;;;;;;;14.88;6.57;;;12.30;55.50;;;;;;4935822;29;20049;-89
2021/05/08 08:44:34;;;;;;;17.00;6.53;;;12.30;56.50;;;;;;4935459;29;20035;-91
2021/05/08 08:46:59;;;;;;;18.92;8.10;;;12.40;56.70;;;;;;4935729;29;20027;-90
2021/05/08 08:49:25;;;;;;;23.55;8.38;;;12.50;55.60;;;;;;4937651;29;20024;-89
2021/05/08 08:51:51;;;;;;;19.60;8.40;;;12.50;55.40;;;;;;4920413;29;20032;-88
2021/05/08 08:54:17;;;;;;;24.58;8.70;;;12.60;55.30;;;;;;4917992;29;20020;-90
2021/05/08 08:56:47;;;;;;;19.77;8.00;;;12.60;53.80;;;;;;4927480;29;20031;-88
2021/05/08 09:01:50;;;;;;;20.75;8.27;;;12.60;54.70;;;;;;4957091;29;20070;-89
2021/05/08 09:04:17;;;;;;;20.10;8.38;;;12.60;54.70;;;;;;4939855;29;20078;-90
2021/05/08 09:06:45;;;;;;;20.75;9.18;;;12.70;54.30;;;;;;4939738;29;20024;-90
2021/05/08 09:09:13;;;;;;;20.10;8.98;;;12.80;54.20;;;;;;4940418;29;20473;-90
2021/05/08 09:11:50;;;;;;;20.65;10.23;;;12.80;54.50;;;;;;4931239;29;20035;-90
2021/05/08 09:14:17;;;;;;;16.77;7.85;;;12.80;53.60;;;;;;4921556;29;20027;-89
2021/05/08 09:17:05;;;;;;;20.45;8.30;;;12.90;54.00;;;;;;4930152;29;20012;-89
2021/05/08 09:19:42;;;;;;;17.08;7.38;;;12.90;51.50;;;;;;4939729;29;20054;-90
2021/05/08 09:22:23;;;;;;;17.85;7.80;;;12.90;52.10;;;;;;4942723;29;20127;-90
2021/05/08 09:24:56;;;;;;;19.20;8.10;;;12.90;53.20;;;;;;4922187;29;20028;-89
2021/05/08 09:27:47;;;;;;;17.33;7.80;;;13.00;52.80;;;;;;4921017;29;20043;-90
2021/05/08 09:30:14;;;;;;;18.77;8.07;;;13.10;52.40;;;;;;4920828;29;20028;-90
2021/05/08 09:32:42;;;;;;;19.92;8.57;;;13.20;52.00;;;;;;4932426;29;20023;-89
2021/05/08 09:35:19;;;;;;;19.87;8.27;;;13.20;51.80;;;;;;4939581;29;20023;-91
2021/05/08 09:37:46;;;;;;;17.90;7.45;;;13.20;52.10;;;;;;4940050;29;20275;-90
2021/05/08 09:40:25;;;;;;;18.23;8.38;;;13.20;52.10;;;;;;4940217;29;20050;-90
2021/05/08 09:42:54;;;;;;;18.83;7.72;;;13.30;52.40;;;;;;4928969;29;20070;-90
2021/05/08 09:45:20;;;;;;;17.40;7.20;;;13.40;52.70;;;;;;4920931;29;20032;-90
2021/05/08 09:47:46;;;;;;;19.40;8.40;;;13.50;52.60;;;;;;4920916;29;20062;-89
2021/05/08 09:50:13;;;;;;;18.60;8.02;;;13.50;52.30;;;;;;4920981;29;20023;-90
2021/05/08 09:52:46;;;;;;;19.40;8.82;;;13.50;52.60;;;;;;4920507;29;20071;-90
2021/05/08 09:55:13;;;;;;;19.17;8.15;;;13.50;52.80;;;;;;4920298;29;20082;-89
2021/05/08 09:57:39;;;;;;;19.45;8.45;;;13.60;52.70;;;;;;4920373;29;20031;-91
2021/05/08 10:00:31;;;;;;;17.25;7.50;;;13.60;52.60;;;;;;4922150;29;20500;-90
2021/05/08 10:03:05;;;;;;;18.70;8.98;;;13.60;52.80;;;;;;4929157;29;20122;-90
2021/05/08 10:05:31;;;;;;;21.75;9.15;;;13.60;53.60;;;;;;4939694;29;20111;-90
2021/05/08 10:07:57;;;;;;;18.05;8.05;;;13.60;52.80;;;;;;4943086;29;20058;-90
2021/05/08 10:10:23;;;;;;;17.88;7.72;;;13.60;53.20;;;;;;4946061;29;20136;-90
2021/05/08 10:12:52;;;;;;;18.33;7.97;;;13.70;53.40;;;;;;4944598;29;20041;-91
2021/05/08 10:15:18;;;;;;;18.15;7.25;;;13.70;53.30;;;;;;4943123;29;20536;-91
2021/05/08 10:17:45;;;;;;;17.95;8.18;;;13.70;53.50;;;;;;4939677;29;20279;-89
2021/05/08 10:20:16;;;;;;;17.77;7.60;;;13.80;53.60;;;;;;4941945;29;20106;-91
2021/05/08 10:22:57;;;;;;;15.88;7.25;;;13.80;53.70;;;;;;4942118;29;20039;-89
2021/05/08 10:25:24;;;;;;;17.58;7.68;;;13.80;53.40;;;;;;4920846;29;20031;-89
2021/05/08 10:27:50;;;;;;;15.85;6.00;;;13.90;53.30;;;;;;4919728;29;20054;-89
2021/05/08 10:30:22;;;;;;;16.52;6.63;;;13.90;53.00;;;;;;4923563;29;20028;-89
2021/05/08 10:32:50;;;;;;;15.52;6.47;;;13.90;53.10;;;;;;4922823;29;20043;-89
2021/05/08 10:35:22;;;;;;;16.42;6.75;;;14.00;53.00;;;;;;4942258;29;20117;-90
2021/05/08 10:38:21;;;;;;;16.88;7.30;;;14.00;52.30;;;;;;4943973;29;20082;-90
2021/05/08 10:40:50;;;;;;;15.25;6.68;;;14.00;52.70;;;;;;4940945;29;20114;-89
2021/05/08 10:43:57;;;;;;;14.60;6.43;;;14.00;52.80;;;;;;4940562;29;20058;-89
2021/05/08 10:46:24;;;;;;;17.75;6.00;;;14.00;53.30;;;;;;4925897;29;20047;-89
2021/05/08 10:49:10;;;;;;;15.68;6.13;;;14.00;53.00;;;;;;4933826;29;20227;-92
2021/05/08 10:52:05;;;;;;;18.73;6.35;;;14.10;51.00;;;;;;4935311;29;20043;-90
2021/05/08 10:54:43;;;;;;;15.32;5.85;;;14.20;52.90;;;;;;4957120;28;20039;-89
2021/05/08 10:57:20;;;;;;;13.95;5.30;;;14.30;52.40;;;;;;4946433;29;20023;-91
2021/05/08 11:00:04;;;;;;;13.90;5.32;;;14.40;51.50;;;;;;4938990;29;20028;-90
2021/05/08 11:02:45;;;;;;;13.05;5.07;;;14.40;52.00;;;;;;4939209;29;20019;-89
2021/05/08 11:05:35;;;;;;;13.38;4.82;;;14.40;51.10;;;;;;4928751;29;20051;-92
2021/05/08 11:08:27;;;;;;;12.23;4.50;;;14.60;50.80;;;;;;4918828;29;20032;-91
2021/05/08 11:11:01;;;;;;;12.27;4.55;;;14.70;50.60;;;;;;4919742;29;20031;-90
2021/05/08 11:13:43;;;;;;;13.13;4.47;;;14.70;50.00;;;;;;4919258;29;20185;-90
2021/05/08 11:16:11;;;;;;;12.98;4.72;;;14.80;50.40;;;;;;4934174;29;20560;-92
2021/05/08 11:18:41;;;;;;;13.00;4.97;;;14.90;51.00;;;;;;4941738;29;20045;-91
2021/05/08 11:21:10;;;;;;;12.35;4.93;;;15.00;50.40;;;;;;4958691;28;20023;-91
2021/05/08 11:23:46;;;;;;;10.40;3.78;;;15.20;50.20;;;;;;4955531;29;20482;-91
2021/05/08 11:29:12;;;;;;;10.00;3.47;;;15.40;47.80;;;;;;4935620;29;20058;-91
2021/05/08 11:31:40;;;;;;;10.48;3.58;;;15.40;48.10;;;;;;4918797;29;20035;-91
2021/05/08 11:34:11;;;;;;;10.82;3.90;;;15.40;47.80;;;;;;4918638;29;20023;-91
2021/05/08 11:36:47;;;;;;;13.10;3.85;;;15.50;47.40;;;;;;4931793;29;20096;-90
2021/05/08 11:39:34;;;;;;;11.65;3.25;;;15.50;48.50;;;;;;4937067;29;20418;-90
2021/05/08 11:42:02;;;;;;;11.15;3.40;;;15.60;45.60;;;;;;4938507;29;20110;-91
2021/05/08 11:44:29;;;;;;;9.30;3.17;;;15.70;47.90;;;;;;4937655;29;20066;-90
2021/05/08 11:47:27;;;;;;;10.60;3.60;;;15.60;46.70;;;;;;4924614;29;20027;-91
2021/05/08 11:50:03;;;;;;;9.52;3.00;;;15.60;44.80;;;;;;4918192;29;20039;-91
2021/05/08 11:52:49;;;;;;;9.63;3.10;;;15.50;46.90;;;;;;4919341;29;20039;-90
2021/05/08 11:55:22;;;;;;;9.50;2.80;;;15.40;46.50;;;;;;4918408;29;20028;-90
2021/05/08 11:57:58;;;;;;;7.93;2.90;;;15.40;46.60;;;;;;4936163;29;20042;-90
2021/05/08 12:00:30;;;;;;;9.73;2.80;;;15.30;46.70;;;;;;4939874;29;20094;-90
2021/05/08 12:03:11;;;;;;;9.55;3.30;;;15.30;45.60;;;;;;4939562;29;20370;-90
2021/05/08 12:05:41;;;;;;;8.27;2.40;;;15.20;44.60;;;;;;4939092;29;20027;-90
2021/05/08 12:08:08;;;;;;;9.68;3.05;;;15.20;45.90;;;;;;4958844;29;20038;-90
2021/05/08 12:10:36;;;;;;;9.13;2.60;;;15.10;46.40;;;;;;4953376;28;20039;-89
2021/05/08 12:13:02;;;;;;;7.68;2.60;;;15.10;46.50;;;;;;4960750;29;20142;-89
2021/05/08 12:15:38;;;;;;;8.57;3.20;;;15.10;46.40;;;;;;4976505;28;20031;-89
2021/05/08 12:18:06;;;;;;;7.97;2.85;;;15.20;46.00;;;;;;4951179;28;20094;-90
2021/05/08 12:20:37;;;;;;;9.88;3.00;;;15.20;46.20;;;;;;4937960;29;20537;-90
2021/05/08 12:23:09;;;;;;;9.98;2.65;;;15.20;44.80;;;;;;4936951;29;20118;-91
2021/05/08 12:25:35;;;;;;;9.05;2.38;;;15.20;45.30;;;;;;4937634;29;20066;-91
2021/05/08 12:28:21;;;;;;;9.60;2.80;;;15.10;45.70;;;;;;4935849;29;20445;-90
2021/05/08 12:30:51;;;;;;;11.60;2.65;;;15.10;43.80;;;;;;4938101;29;20053;-89
2021/05/08 12:33:23;;;;;;;6.70;2.78;;;15.00;45.60;;;;;;4936774;29;20090;-89
2021/05/08 12:35:57;;;;;;;6.68;2.63;;;15.00;45.80;;;;;;4917706;29;20039;-91
2021/05/08 12:38:29;;;;;;;11.32;3.60;;;15.00;45.30;;;;;;4920904;29;20046;-90
2021/05/08 12:40:55;;;;;;;13.63;4.85;;;14.90;45.60;;;;;;4918504;29;20478;-91
2021/05/08 12:43:30;;;;;;;10.18;3.70;;;14.90;45.60;;;;;;4918471;29;20059;-90
2021/05/08 12:46:08;;;;;;;9.25;2.65;;;14.90;46.10;;;;;;4917629;29;20078;-91
2021/05/08 12:48:38;;;;;;;5.93;2.50;;;14.90;46.50;;;;;;4931690;28;20508;-90
2021/05/08 12:51:24;;;;;;;8.82;2.80;;;15.00;46.70;;;;;;4964035;28;20038;-90
2021/05/08 12:54:16;;;;;;;9.82;2.90;;;15.00;46.60;;;;;;4955785;28;20023;-91